createdAt,value
2022-10-25T00:00:57.881Z,24.12
2022-10-25T00:03:24.222Z,24.14
2022-10-25T00:05:50.541Z,24.11
2022-10-25T00:08:16.874Z,24.14
2022-10-25T00:10:43.195Z,24.17
2022-10-25T00:13:09.525Z,24.15
2022-10-25T00:15:35.863Z,24.13
2022-10-25T00:18:02.176Z,24.11
2022-10-25T00:20:28.518Z,24.11
2022-10-25T00:22:54.836Z,24.12
2022-10-25T00:25:21.159Z,24.13
2022-10-25T00:27:47.496Z,24.13
2022-10-25T00:30:13.830Z,24.15
2022-10-25T00:32:40.172Z,24.15
2022-10-25T00:35:06.490Z,24.15
2022-10-25T00:37:32.926Z,24.19
2022-10-25T00:39:59.294Z,24.20
2022-10-25T00:42:25.633Z,24.14
2022-10-25T00:44:51.977Z,24.18
2022-10-25T00:47:18.295Z,24.18
2022-10-25T00:49:44.632Z,24.20
2022-10-25T00:52:10.947Z,24.19
2022-10-25T00:54:37.273Z,24.19
2022-10-25T00:57:03.613Z,24.18
2022-10-25T00:59:29.933Z,24.18
2022-10-25T01:01:56.530Z,24.18
2022-10-25T01:04:22.967Z,24.19
2022-10-25T01:06:49.290Z,24.23
2022-10-25T01:09:15.616Z,24.18
2022-10-25T01:11:41.948Z,24.17
2022-10-25T01:14:08.268Z,24.17
2022-10-25T01:16:34.610Z,24.14
2022-10-25T01:19:00.927Z,24.15
2022-10-25T01:21:27.256Z,24.16
2022-10-25T01:23:53.574Z,24.19
2022-10-25T01:26:19.909Z,24.18
2022-10-25T01:28:46.240Z,24.17
2022-10-25T01:31:12.572Z,24.17
2022-10-25T01:33:38.909Z,24.20
2022-10-25T01:36:05.284Z,24.18
2022-10-25T01:38:31.637Z,24.17
2022-10-25T01:40:57.959Z,24.16
2022-10-25T01:43:24.283Z,24.15
2022-10-25T01:45:50.616Z,24.17
2022-10-25T01:48:16.944Z,24.17
2022-10-25T01:50:43.278Z,24.13
2022-10-25T01:53:09.605Z,24.15
2022-10-25T01:55:35.934Z,24.16
2022-10-25T01:58:02.296Z,24.22
2022-10-25T02:00:28.685Z,24.20
2022-10-25T02:02:55.041Z,24.19
2022-10-25T02:05:21.372Z,24.17
2022-10-25T02:07:47.695Z,24.18
2022-10-25T02:10:14.024Z,24.17
2022-10-25T02:12:40.356Z,24.17
2022-10-25T02:15:06.696Z,24.15
2022-10-25T02:17:33.024Z,24.15
2022-10-25T02:19:59.362Z,24.14
2022-10-25T02:22:25.699Z,24.16
2022-10-25T02:24:52.038Z,24.14
2022-10-25T02:27:18.390Z,24.15
2022-10-25T02:29:44.734Z,24.12
2022-10-25T02:32:11.073Z,24.12
2022-10-25T02:34:37.436Z,24.13
2022-10-25T02:37:03.764Z,24.11
2022-10-25T02:39:31.509Z,24.15
2022-10-25T02:41:58.281Z,24.12
2022-10-25T02:44:24.626Z,24.13
2022-10-25T02:46:50.962Z,24.17
2022-10-25T02:49:17.298Z,24.19
2022-10-25T02:51:43.692Z,24.14
2022-10-25T02:54:10.058Z,24.16
2022-10-25T02:56:36.386Z,24.15
2022-10-25T02:59:02.714Z,24.13
2022-10-25T03:01:29.106Z,24.15
2022-10-25T03:03:55.450Z,24.14
2022-10-25T03:06:21.789Z,24.11
2022-10-25T03:08:48.123Z,24.12
2022-10-25T03:11:14.453Z,24.13
2022-10-25T03:13:40.781Z,24.13
2022-10-25T03:16:07.103Z,24.14
2022-10-25T03:18:33.441Z,24.15
2022-10-25T03:20:59.794Z,24.16
2022-10-25T03:23:26.119Z,24.13
2022-10-25T03:25:54.251Z,24.16
2022-10-25T03:28:20.886Z,24.16
2022-10-25T03:30:47.226Z,24.15
2022-10-25T03:33:13.543Z,24.15
2022-10-25T03:35:39.886Z,24.14
2022-10-25T03:38:06.213Z,24.15
2022-10-25T03:40:32.558Z,24.16
2022-10-25T03:42:58.905Z,24.19
2022-10-25T03:45:25.243Z,24.18
2022-10-25T03:47:51.564Z,24.13
2022-10-25T03:50:17.900Z,24.18
2022-10-25T03:52:44.216Z,24.17
2022-10-25T03:55:10.548Z,24.19
2022-10-25T03:57:36.873Z,24.21
2022-10-25T04:00:03.213Z,24.17
2022-10-25T04:02:29.550Z,24.19
2022-10-25T04:04:55.880Z,24.18
2022-10-25T04:07:22.213Z,24.15
2022-10-25T04:09:48.547Z,24.11
2022-10-25T04:12:14.874Z,24.16
2022-10-25T04:14:41.196Z,24.15
2022-10-25T04:17:07.532Z,24.15
2022-10-25T04:19:33.860Z,24.16
2022-10-25T04:22:00.198Z,24.13
2022-10-25T04:24:26.531Z,24.13
2022-10-25T04:26:52.866Z,24.13
2022-10-25T04:29:19.196Z,24.13
2022-10-25T04:31:45.516Z,24.17
2022-10-25T04:34:11.855Z,24.17
2022-10-25T04:36:38.197Z,24.19
2022-10-25T04:39:04.533Z,24.16
2022-10-25T04:41:30.886Z,24.03
2022-10-25T04:43:57.223Z,24.13
2022-10-25T04:46:23.562Z,24.18
2022-10-25T04:48:49.892Z,24.19
2022-10-25T04:51:16.213Z,24.31
2022-10-25T04:53:42.545Z,24.34
2022-10-25T04:56:08.882Z,24.35
2022-10-25T04:58:35.196Z,24.26
2022-10-25T05:01:01.583Z,24.24
2022-10-25T05:03:28.010Z,24.18
2022-10-25T05:05:54.373Z,24.24
2022-10-25T05:08:20.709Z,24.09
2022-10-25T05:10:47.054Z,23.70
2022-10-25T05:13:13.401Z,23.59
2022-10-25T05:15:39.737Z,23.45
2022-10-25T05:18:06.076Z,23.77
2022-10-25T05:20:32.399Z,23.97
2022-10-25T05:22:58.745Z,24.01
2022-10-25T05:25:25.088Z,24.04
2022-10-25T05:27:51.408Z,24.02
2022-10-25T05:30:17.752Z,24.06
2022-10-25T05:32:44.189Z,24.11
2022-10-25T05:35:10.604Z,24.13
2022-10-25T05:37:36.943Z,24.14
2022-10-25T05:40:03.278Z,24.16
2022-10-25T05:42:29.616Z,24.17
2022-10-25T05:44:55.952Z,24.19
2022-10-25T05:47:22.296Z,24.21
2022-10-25T05:49:48.624Z,24.21
2022-10-25T05:52:14.951Z,24.21
2022-10-25T05:54:41.288Z,24.22
2022-10-25T05:57:07.635Z,24.22
2022-10-25T05:59:33.961Z,24.24
2022-10-25T06:02:00.433Z,24.23
2022-10-25T06:04:26.848Z,24.23
2022-10-25T06:06:53.209Z,24.24
2022-10-25T06:09:19.547Z,24.24
2022-10-25T06:11:45.870Z,24.21
2022-10-25T06:14:12.200Z,24.20
2022-10-25T06:16:38.546Z,24.17
2022-10-25T06:19:04.898Z,24.19
2022-10-25T06:21:31.238Z,24.18
2022-10-25T06:23:57.568Z,24.19
2022-10-25T06:26:23.905Z,24.20
2022-10-25T06:28:50.245Z,24.21
2022-10-25T06:31:16.588Z,24.21
2022-10-25T06:33:42.907Z,24.18
2022-10-25T06:36:09.255Z,24.21
2022-10-25T06:38:35.596Z,24.22
2022-10-25T06:41:01.935Z,24.21
2022-10-25T06:43:28.489Z,24.22
2022-10-25T06:45:54.872Z,24.22
2022-10-25T06:48:21.219Z,24.20
2022-10-25T06:50:49.968Z,24.21
2022-10-25T06:53:18.509Z,24.21
2022-10-25T06:55:44.845Z,24.19
2022-10-25T06:58:11.168Z,24.21
2022-10-25T07:00:37.511Z,24.22
2022-10-25T07:03:03.849Z,24.21
2022-10-25T07:05:30.185Z,24.20
2022-10-25T07:07:56.529Z,24.21
2022-10-25T07:10:22.871Z,24.22
2022-10-25T07:12:49.217Z,24.23
2022-10-25T07:15:15.589Z,24.22
2022-10-25T07:17:41.993Z,24.23
2022-10-25T07:20:08.324Z,24.23
2022-10-25T07:22:34.649Z,24.22
2022-10-25T07:25:01.045Z,24.22
2022-10-25T07:27:27.401Z,24.22
2022-10-25T07:29:53.732Z,24.24
2022-10-25T07:32:20.069Z,24.23
2022-10-25T07:34:46.444Z,24.23
2022-10-25T07:37:12.812Z,24.23
2022-10-25T07:39:39.140Z,24.24
2022-10-25T07:42:05.469Z,24.23
2022-10-25T07:44:31.797Z,24.23
2022-10-25T07:46:58.135Z,24.22
2022-10-25T07:49:24.475Z,24.22
2022-10-25T07:51:50.800Z,24.21
2022-10-25T07:54:17.120Z,24.23
2022-10-25T07:56:43.448Z,24.23
2022-10-25T07:59:09.775Z,24.22
2022-10-25T08:01:36.163Z,24.22
2022-10-25T08:04:02.546Z,24.20
2022-10-25T08:06:28.864Z,24.19
2022-10-25T08:08:55.197Z,24.19
2022-10-25T08:11:21.527Z,24.18
2022-10-25T08:13:47.866Z,24.18
2022-10-25T08:16:14.200Z,24.18
2022-10-25T08:18:40.540Z,24.19
2022-10-25T08:21:06.873Z,24.16
2022-10-25T08:23:33.249Z,24.18
2022-10-25T08:25:59.588Z,24.18
2022-10-25T08:28:25.938Z,24.16
2022-10-25T08:30:52.291Z,24.17
2022-10-25T08:33:18.632Z,24.18
2022-10-25T08:35:44.976Z,24.19
2022-10-25T08:38:11.305Z,24.18
2022-10-25T08:40:37.649Z,24.17
2022-10-25T08:43:03.980Z,24.17
2022-10-25T08:45:30.316Z,24.16
2022-10-25T08:47:56.661Z,24.16
2022-10-25T08:50:22.995Z,24.20
2022-10-25T08:52:49.337Z,24.17
2022-10-25T08:55:15.663Z,24.15
2022-10-25T08:57:41.993Z,24.12
2022-10-25T09:00:08.316Z,24.11
2022-10-25T09:02:34.769Z,24.12
2022-10-25T09:05:01.210Z,24.13
2022-10-25T09:07:27.543Z,24.07
2022-10-25T09:09:53.870Z,24.06
2022-10-25T09:12:20.197Z,24.04
2022-10-25T09:14:46.520Z,24.05
2022-10-25T09:17:12.855Z,24.08
2022-10-25T09:19:39.186Z,24.09
2022-10-25T09:22:05.525Z,24.07
2022-10-25T09:24:31.857Z,24.14
2022-10-25T09:26:58.180Z,24.13
2022-10-25T09:29:24.513Z,24.13
2022-10-25T09:31:50.854Z,24.14
2022-10-25T09:34:17.180Z,24.10
2022-10-25T09:36:43.504Z,24.09
2022-10-25T09:39:14.774Z,24.09
2022-10-25T09:41:42.181Z,24.08
2022-10-25T09:44:08.508Z,24.07
2022-10-25T09:46:34.871Z,24.06
2022-10-25T09:49:01.192Z,24.09
2022-10-25T09:51:27.536Z,24.07
2022-10-25T09:53:53.869Z,24.07
2022-10-25T09:56:20.205Z,24.05
2022-10-25T09:58:46.542Z,24.07
2022-10-25T10:01:12.982Z,24.07
2022-10-25T10:03:39.377Z,24.07
2022-10-25T10:06:05.703Z,24.09
2022-10-25T10:08:32.032Z,24.10
2022-10-25T10:10:58.379Z,24.08
2022-10-25T10:13:24.702Z,24.08
2022-10-25T10:15:51.037Z,24.09
2022-10-25T10:18:17.374Z,24.09
2022-10-25T10:20:43.696Z,24.08
2022-10-25T10:23:10.028Z,24.06
2022-10-25T10:25:36.347Z,24.08
2022-10-25T10:28:02.681Z,24.08
2022-10-25T10:30:29.038Z,24.09
2022-10-25T10:32:57.338Z,24.10
2022-10-25T10:35:24.009Z,24.09
2022-10-25T10:37:50.328Z,24.10
2022-10-25T10:40:16.661Z,24.11
2022-10-25T10:42:42.984Z,24.09
2022-10-25T10:45:09.326Z,24.10
2022-10-25T10:47:35.644Z,24.12
2022-10-25T10:50:03.046Z,24.12
2022-10-25T10:52:29.383Z,24.13
2022-10-25T10:54:55.702Z,24.13
2022-10-25T10:57:22.038Z,24.11
2022-10-25T10:59:48.366Z,24.11
2022-10-25T11:02:15.034Z,24.12
2022-10-25T11:04:41.465Z,24.13
2022-10-25T11:07:07.803Z,24.12
2022-10-25T11:09:34.169Z,24.13
2022-10-25T11:12:00.533Z,24.13
2022-10-25T11:14:26.888Z,24.13
2022-10-25T11:16:53.248Z,24.12
2022-10-25T11:19:19.589Z,24.13
2022-10-25T11:21:45.932Z,24.13
2022-10-25T11:24:12.257Z,24.14
2022-10-25T11:26:38.587Z,24.14
2022-10-25T11:29:04.919Z,24.16
2022-10-25T11:31:31.249Z,24.16
2022-10-25T11:33:57.584Z,24.15
2022-10-25T11:36:23.934Z,24.14
2022-10-25T11:38:50.274Z,24.13
2022-10-25T11:41:16.601Z,24.16
2022-10-25T11:43:42.919Z,24.15
2022-10-25T11:46:09.254Z,24.17
2022-10-25T11:48:35.585Z,24.17
2022-10-25T11:51:01.928Z,24.15
2022-10-25T11:53:28.244Z,24.17
2022-10-25T11:55:54.582Z,24.19
2022-10-25T11:58:20.961Z,24.18
2022-10-25T12:00:47.285Z,24.18
2022-10-25T12:03:13.643Z,24.18
2022-10-25T12:05:40.057Z,24.16
2022-10-25T12:08:06.390Z,24.17
2022-10-25T12:10:32.750Z,24.17
2022-10-25T12:12:59.097Z,24.15
2022-10-25T12:15:25.440Z,24.17
2022-10-25T12:17:51.768Z,24.15
2022-10-25T12:20:18.091Z,24.17
2022-10-25T12:22:44.625Z,24.17
2022-10-25T12:25:11.144Z,24.16
2022-10-25T12:27:37.482Z,24.17
2022-10-25T12:30:03.819Z,24.16
2022-10-25T12:32:30.184Z,24.16
2022-10-25T12:34:56.504Z,24.16
2022-10-25T12:37:22.834Z,24.15
2022-10-25T12:39:49.168Z,24.17
2022-10-25T12:42:15.504Z,24.16
2022-10-25T12:44:41.840Z,24.16
2022-10-25T12:47:08.164Z,24.16
2022-10-25T12:49:34.498Z,24.18
2022-10-25T12:52:00.849Z,24.19
2022-10-25T12:54:27.159Z,24.19
2022-10-25T12:56:53.488Z,24.18
2022-10-25T12:59:19.822Z,24.17
2022-10-25T13:01:46.201Z,24.16
2022-10-25T13:04:12.566Z,24.17
2022-10-25T13:06:38.898Z,24.16
2022-10-25T13:09:05.272Z,24.16
2022-10-25T13:11:31.617Z,24.16
2022-10-25T13:13:57.945Z,24.19
2022-10-25T13:16:24.272Z,24.18
2022-10-25T13:18:50.604Z,24.17
2022-10-25T13:21:16.940Z,24.17
2022-10-25T13:23:43.263Z,24.20
2022-10-25T13:26:09.590Z,24.19
2022-10-25T13:28:36.335Z,24.19
2022-10-25T13:31:02.678Z,24.19
2022-10-25T13:33:29.015Z,24.18
2022-10-25T13:35:55.349Z,24.19
2022-10-25T13:38:21.672Z,24.19
2022-10-25T13:40:48.021Z,24.19
2022-10-25T13:43:14.356Z,24.18
2022-10-25T13:45:40.696Z,24.19
2022-10-25T13:48:07.040Z,24.18
2022-10-25T13:50:33.360Z,24.19
2022-10-25T13:53:01.738Z,24.19
2022-10-25T13:55:29.102Z,24.20
2022-10-25T13:57:55.451Z,24.20
2022-10-25T14:00:21.793Z,24.18
2022-10-25T14:02:48.397Z,24.18
2022-10-25T14:05:14.928Z,24.19
2022-10-25T14:07:41.264Z,24.17
2022-10-25T14:10:07.664Z,24.19
2022-10-25T14:12:34.059Z,24.20
2022-10-25T14:15:00.394Z,24.20
2022-10-25T14:17:26.723Z,24.19
2022-10-25T14:19:53.043Z,24.19
2022-10-25T14:22:19.361Z,24.19
2022-10-25T14:24:45.688Z,24.19
2022-10-25T14:27:12.031Z,24.22
2022-10-25T14:29:38.362Z,24.21
2022-10-25T14:32:04.692Z,24.21
2022-10-25T14:34:31.012Z,24.20
2022-10-25T14:36:57.345Z,24.20
2022-10-25T14:39:23.686Z,24.22
2022-10-25T14:41:50.031Z,24.21
2022-10-25T14:44:16.445Z,24.22
2022-10-25T14:46:42.761Z,24.20
2022-10-25T14:49:09.094Z,24.21
2022-10-25T14:51:35.433Z,24.27
2022-10-25T14:54:01.823Z,24.24
2022-10-25T14:56:28.166Z,24.20
2022-10-25T14:58:54.480Z,24.20
2022-10-25T15:01:20.939Z,24.20
2022-10-25T15:03:47.389Z,24.20
2022-10-25T15:06:13.749Z,24.20
2022-10-25T15:08:40.098Z,24.18
2022-10-25T15:11:09.512Z,24.20
2022-10-25T15:13:36.828Z,24.21
2022-10-25T15:16:03.165Z,24.20
2022-10-25T15:18:29.504Z,24.21
2022-10-25T15:20:59.696Z,24.19
2022-10-25T15:23:26.262Z,24.21
2022-10-25T15:25:52.592Z,24.20
2022-10-25T15:28:18.929Z,24.21
2022-10-25T15:30:45.281Z,24.23
2022-10-25T15:33:11.611Z,24.21
2022-10-25T15:35:37.936Z,24.23
2022-10-25T15:38:04.267Z,24.20
2022-10-25T15:40:30.624Z,24.21
2022-10-25T15:42:56.962Z,24.19
2022-10-25T15:45:23.292Z,24.21
2022-10-25T15:47:49.646Z,24.21
2022-10-25T15:50:15.981Z,24.19
2022-10-25T15:52:42.308Z,24.19
2022-10-25T15:55:08.636Z,24.20
2022-10-25T15:57:34.982Z,24.18
2022-10-25T16:00:01.330Z,24.20
2022-10-25T16:02:27.653Z,24.20
2022-10-25T16:04:53.999Z,24.19
2022-10-25T16:07:20.315Z,24.19
2022-10-25T16:09:46.661Z,24.18
2022-10-25T16:12:13.001Z,24.21
2022-10-25T16:14:39.329Z,24.18
2022-10-25T16:17:05.653Z,24.16
2022-10-25T16:19:31.981Z,24.17
2022-10-25T16:21:58.387Z,24.17
2022-10-25T16:24:24.722Z,24.16
2022-10-25T16:26:51.076Z,24.14
2022-10-25T16:29:17.410Z,24.15
2022-10-25T16:31:43.746Z,24.16
2022-10-25T16:34:10.122Z,24.14
2022-10-25T16:36:36.462Z,24.16
2022-10-25T16:39:02.789Z,24.18
2022-10-25T16:41:29.123Z,24.17
2022-10-25T16:43:55.448Z,24.17
2022-10-25T16:46:21.788Z,24.22
2022-10-25T16:48:48.146Z,24.17
2022-10-25T16:51:14.485Z,24.23
2022-10-25T16:53:40.826Z,24.16
2022-10-25T16:56:07.164Z,24.15
2022-10-25T16:58:33.505Z,24.17
2022-10-25T17:00:59.874Z,24.19
2022-10-25T17:03:26.231Z,24.18
2022-10-25T17:05:52.564Z,24.15
2022-10-25T17:08:18.891Z,24.08
2022-10-25T17:10:46.156Z,24.08
2022-10-25T17:13:12.611Z,24.11
2022-10-25T17:15:38.941Z,24.39
2022-10-25T17:18:05.255Z,24.49
2022-10-25T17:20:31.589Z,24.41
2022-10-25T17:22:57.924Z,24.25
2022-10-25T17:25:24.252Z,24.17
2022-10-25T17:27:50.854Z,24.14
2022-10-25T17:30:17.371Z,24.13
2022-10-25T17:32:43.691Z,24.14
2022-10-25T17:35:10.033Z,24.12
2022-10-25T17:37:36.359Z,24.07
2022-10-25T17:40:02.689Z,24.06
2022-10-25T17:42:29.018Z,24.10
2022-10-25T17:44:55.348Z,24.17
2022-10-25T17:47:21.680Z,24.12
2022-10-25T17:49:48.010Z,24.12
2022-10-25T17:52:14.349Z,24.11
2022-10-25T17:54:40.682Z,24.24
2022-10-25T17:57:07.024Z,24.18
2022-10-25T17:59:33.347Z,24.17
2022-10-25T18:01:59.779Z,24.15
2022-10-25T18:04:26.148Z,24.15
2022-10-25T18:06:52.464Z,24.16
2022-10-25T18:09:18.800Z,24.14
2022-10-25T18:11:45.136Z,24.17
2022-10-25T18:14:11.557Z,24.15
2022-10-25T18:16:37.909Z,24.16
2022-10-25T18:19:04.258Z,24.12
2022-10-25T18:21:30.594Z,24.16
2022-10-25T18:23:56.923Z,24.16
2022-10-25T18:26:23.252Z,24.17
2022-10-25T18:28:49.604Z,24.12
2022-10-25T18:31:15.973Z,24.18
2022-10-25T18:33:42.305Z,24.10
2022-10-25T18:36:08.641Z,24.16
2022-10-25T18:38:34.973Z,24.17
2022-10-25T18:41:01.304Z,24.17
2022-10-25T18:43:27.649Z,24.16
2022-10-25T18:45:53.982Z,24.16
2022-10-25T18:48:24.612Z,24.16
2022-10-25T18:50:50.943Z,24.17
2022-10-25T18:53:17.268Z,24.17
2022-10-25T18:55:43.613Z,24.15
2022-10-25T18:58:09.945Z,24.15
2022-10-25T19:00:36.284Z,24.14
2022-10-25T19:03:02.591Z,24.15
2022-10-25T19:05:28.908Z,24.12
2022-10-25T19:07:55.236Z,24.16
2022-10-25T19:10:21.560Z,24.17
2022-10-25T19:12:47.891Z,24.15
2022-10-25T19:15:14.235Z,24.14
2022-10-25T19:17:40.600Z,24.14
2022-10-25T19:20:06.959Z,24.15
2022-10-25T19:22:33.284Z,24.16
2022-10-25T19:24:59.601Z,24.15
2022-10-25T19:27:25.941Z,24.15
2022-10-25T19:29:52.274Z,24.15
2022-10-25T19:32:18.603Z,24.13
2022-10-25T19:34:44.968Z,24.14
2022-10-25T19:37:11.322Z,24.13
2022-10-25T19:39:37.646Z,24.14
2022-10-25T19:42:03.978Z,24.14
2022-10-25T19:44:30.323Z,24.15
2022-10-25T19:46:56.657Z,24.15
2022-10-25T19:49:22.990Z,24.15
2022-10-25T19:51:49.311Z,24.15
2022-10-25T19:54:15.639Z,24.13
2022-10-25T19:56:41.965Z,24.15
2022-10-25T19:59:08.294Z,24.13
2022-10-25T20:01:34.656Z,24.14
2022-10-25T20:04:01.148Z,24.15
2022-10-25T20:06:27.483Z,24.14
2022-10-25T20:08:53.810Z,24.14
2022-10-25T20:11:20.154Z,24.14
2022-10-25T20:13:46.492Z,24.14
2022-10-25T20:16:12.834Z,24.15
2022-10-25T20:18:39.171Z,24.14
2022-10-25T20:21:05.509Z,24.15
2022-10-25T20:23:31.844Z,24.14
2022-10-25T20:25:58.175Z,24.15
2022-10-25T20:28:24.506Z,24.14
2022-10-25T20:30:50.827Z,24.14
2022-10-25T20:33:17.144Z,24.15
2022-10-25T20:35:43.472Z,24.12
2022-10-25T20:38:09.811Z,24.01
2022-10-25T20:40:36.154Z,23.85
2022-10-25T20:43:02.491Z,23.82
2022-10-25T20:45:28.826Z,23.81
2022-10-25T20:47:55.152Z,23.74
2022-10-25T20:50:21.488Z,23.80
2022-10-25T20:52:58.540Z,23.76
2022-10-25T20:55:34.147Z,24.11
2022-10-25T20:58:00.471Z,24.21
2022-10-25T21:00:26.808Z,24.25
2022-10-25T21:02:53.136Z,24.28
2022-10-25T21:05:19.475Z,24.28
2022-10-25T21:07:46.019Z,24.31
2022-10-25T21:10:12.625Z,24.31
2022-10-25T21:12:38.943Z,24.28
2022-10-25T21:15:08.072Z,24.28
2022-10-25T21:17:37.434Z,24.27
2022-10-25T21:20:03.773Z,24.28
2022-10-25T21:22:30.109Z,24.29
2022-10-25T21:24:56.444Z,24.30
2022-10-25T21:27:22.767Z,24.31
2022-10-25T21:29:49.098Z,24.28
2022-10-25T21:32:15.441Z,24.28
2022-10-25T21:34:41.765Z,24.29
2022-10-25T21:37:08.088Z,24.29
2022-10-25T21:39:34.422Z,24.28
2022-10-25T21:42:00.753Z,24.27
2022-10-25T21:44:27.082Z,24.28
2022-10-25T21:46:53.418Z,24.27
2022-10-25T21:49:19.744Z,24.28
2022-10-25T21:51:46.074Z,24.28
2022-10-25T21:54:12.405Z,24.27
2022-10-25T21:56:38.737Z,24.26
2022-10-25T21:59:05.064Z,24.25
2022-10-25T22:01:31.528Z,24.27
2022-10-25T22:03:57.988Z,24.25
2022-10-25T22:06:24.323Z,24.24
2022-10-25T22:08:50.641Z,24.27
2022-10-25T22:11:16.990Z,24.25
2022-10-25T22:13:43.335Z,24.24
2022-10-25T22:16:09.611Z,24.23
2022-10-25T22:18:35.898Z,24.23
2022-10-25T22:21:02.164Z,24.24
2022-10-25T22:23:28.430Z,24.23
2022-10-25T22:25:54.710Z,24.26
2022-10-25T22:28:20.987Z,24.25
2022-10-25T22:30:47.255Z,24.26
2022-10-25T22:33:13.525Z,24.24
2022-10-25T22:35:39.898Z,24.25
2022-10-25T22:38:06.186Z,24.22
2022-10-25T22:40:32.443Z,24.20
2022-10-25T22:42:58.705Z,24.21
2022-10-25T22:45:24.973Z,24.23
2022-10-25T22:47:51.449Z,24.24
2022-10-25T22:50:17.784Z,24.23
2022-10-25T22:55:11.265Z,24.23
2022-10-25T22:57:37.522Z,24.22
2022-10-25T23:00:03.807Z,24.23
2022-10-25T23:02:30.083Z,24.21
2022-10-25T23:04:56.348Z,24.21
2022-10-25T23:07:22.617Z,24.21
2022-10-25T23:09:48.889Z,24.20
2022-10-25T23:12:15.149Z,24.21
2022-10-25T23:14:41.420Z,24.20
2022-10-25T23:17:07.688Z,24.23
2022-10-25T23:19:33.952Z,24.19
2022-10-25T23:22:00.223Z,24.21
2022-10-25T23:24:26.490Z,24.20
2022-10-25T23:26:52.759Z,24.19
2022-10-25T23:29:19.061Z,24.21
2022-10-25T23:31:45.331Z,24.19
2022-10-25T23:34:11.667Z,24.19
2022-10-25T23:36:38.179Z,24.20
2022-10-25T23:39:04.502Z,24.20
2022-10-25T23:41:30.770Z,24.17
2022-10-25T23:43:57.055Z,24.16
2022-10-25T23:46:23.323Z,24.16
2022-10-25T23:48:49.594Z,24.18
2022-10-25T23:51:15.853Z,24.18
2022-10-25T23:53:42.125Z,24.18
2022-10-25T23:56:08.392Z,24.15
2022-10-25T23:58:34.668Z,24.18
